Red Boiling Springs, Tennessee
Current Conditions -  °F | °C
As of 6:15 AM on Thursday 29 Jan 2015 (Local Time) from KGLW Reporting Station
Light Rain Light Rain  
Wind Chill: 40°   Ceiling: 7500
Heat Index: 46°   Visibility: 10mi
Dew Point: 33°   Wind: 14mph
Humidity: 61%   Direction: 190°S
Pressure: 29.98"   Gusts: 21mph
Location:  36.53°N, 85.85°W
Report Text: KGLW 291215Z AUTO 19012G18KT 10SM -RA OVC075 08/01 A2998 RMK AO2 T00790008
Loading
Personal Weather Stations






























Interactive Weather Map New forecast layout! Learn more

10-Day Weather Forecast

Advertisements
Track Severe Weather on mobile